Time;durP1;ratioP1;P1;durP2;ratioP2;P2;SDS_P1;SDS_P2;PMS_P1;PMS_P2;Temp;Humidity;BMP_temperature;BMP_pressure;BME280_temperature;BME280_humidity;BME280_pressure;Samples;Min_cycle;Max_cycle;Signal;HPM_P1;HPM_P2
2022/01/27 00:05:38;;;;;;;;;;;-3.40;99.90;;;;;;4999008;28;19983;-87
2022/01/27 00:13:15;;;;;;;;;;;-3.50;99.90;;;;;;5017955;28;19971;-88
2022/01/27 00:15:42;;;;;;;;;;;-3.50;99.90;;;;;;5032123;28;19920;-86
2022/01/27 00:18:14;;;;;;;;;;;-3.50;99.90;;;;;;5013265;28;20377;-88
2022/01/27 00:20:40;;;;;;;;;;;-3.60;99.90;;;;;;5012261;28;19921;-88
2022/01/27 00:23:06;;;;;;;;;;;-3.60;99.90;;;;;;5011419;28;19932;-89
2022/01/27 00:25:31;;;;;;;;;;;-3.80;99.90;;;;;;5011633;28;20364;-87
2022/01/27 00:27:56;;;;;;;;;;;-3.80;99.90;;;;;;5011586;28;20327;-89
2022/01/27 00:30:22;;;;;;;;;;;-3.80;99.90;;;;;;5011218;28;19989;-88
2022/01/27 00:32:48;;;;;;;;;;;-3.80;99.90;;;;;;5010345;28;19917;-87
2022/01/27 00:35:13;;;;;;;;;;;-3.80;99.90;;;;;;5014363;28;19924;-90
2022/01/27 00:37:39;;;;;;;;;;;-3.90;99.90;;;;;;5011600;28;19920;-89
2022/01/27 00:40:06;;;;;;;;;;;-3.90;99.90;;;;;;5011552;28;20020;-87
2022/01/27 00:42:32;;;;;;;;;;;-3.90;99.90;;;;;;4996004;28;20446;-89
2022/01/27 00:44:58;;;;;;;;;;;-3.90;99.90;;;;;;5025548;28;19955;-86
2022/01/27 00:47:24;;;;;;;;;;;-4.00;99.90;;;;;;5012667;28;19963;-88
2022/01/27 00:49:50;;;;;;;;;;;-4.00;99.90;;;;;;5005286;28;20322;-88
2022/01/27 00:52:23;;;;;;;;;;;-4.10;99.90;;;;;;5018377;28;19980;-90
2022/01/27 00:54:51;;;;;;;;;;;-4.10;99.90;;;;;;5025629;28;19924;-86
2022/01/27 01:00:03;;;;;;;;;;;-4.00;99.90;;;;;;5010918;28;19913;-89
2022/01/27 01:07:42;;;;;;;;;;;-4.10;99.90;;;;;;5003687;28;20417;-89
2022/01/27 01:15:24;;;;;;;;;;;-4.10;99.90;;;;;;4991153;28;20389;-86
2022/01/27 01:17:58;;;;;;;;;;;-4.20;99.90;;;;;;5010695;28;19910;-86
2022/01/27 01:20:33;;;;;;;;;;;-4.20;99.90;;;;;;5006773;28;19917;-86
2022/01/27 01:31:31;;;;;;;;;;;-4.20;99.90;;;;;;5030637;28;19940;-87
2022/01/27 01:34:13;;;;;;;;;;;-4.20;99.90;;;;;;5009096;28;19925;-86
2022/01/27 01:36:53;;;;;;;;;;;-4.20;99.90;;;;;;5011047;28;19913;-88
2022/01/27 01:39:19;;;;;;;;;;;-4.20;99.90;;;;;;4993364;28;20573;-89
2022/01/27 01:41:45;;;;;;;;;;;-4.30;99.90;;;;;;5010588;28;20085;-87
2022/01/27 01:44:11;;;;;;;;;;;-4.30;99.90;;;;;;5025465;28;20007;-88
2022/01/27 01:46:36;;;;;;;;;;;-4.40;99.90;;;;;;5020631;28;19921;-87
2022/01/27 01:49:02;;;;;;;;;;;-4.40;99.90;;;;;;5009588;28;20321;-87
2022/01/27 01:51:29;;;;;;;;;;;-4.40;99.90;;;;;;5011538;28;19914;-89
2022/01/27 01:53:55;;;;;;;;;;;-4.40;99.90;;;;;;4993085;28;19917;-88
2022/01/27 01:56:23;;;;;;;;;;;-4.40;99.90;;;;;;5015829;28;19996;-88
2022/01/27 01:58:49;;;;;;;;;;;-4.50;99.90;;;;;;5012268;28;20352;-88
2022/01/27 02:01:15;;;;;;;;;;;-4.40;99.90;;;;;;5019756;28;19968;-87
2022/01/27 02:03:40;;;;;;;;;;;-4.50;99.90;;;;;;5012278;28;19909;-86
2022/01/27 02:06:07;;;;;;;;;;;-4.50;99.90;;;;;;4998317;28;19914;-87
2022/01/27 02:08:49;;;;;;;;;;;-4.40;99.90;;;;;;4992549;28;19925;-87
2022/01/27 02:19:29;;;;;;;;;;;-4.50;99.90;;;;;;5022117;28;19921;-87
2022/01/27 02:21:54;;;;;;;;;;;-4.50;99.90;;;;;;4999189;28;19960;-88
2022/01/27 02:24:21;;;;;;;;;;;-4.50;99.90;;;;;;5024005;28;19922;-88
2022/01/27 02:26:50;;;;;;;;;;;-4.50;99.90;;;;;;5021663;28;19917;-85
2022/01/27 02:29:17;;;;;;;;;;;-4.50;99.90;;;;;;5013312;28;19914;-89
2022/01/27 02:31:42;;;;;;;;;;;-4.50;99.90;;;;;;5013385;28;19920;-86
2022/01/27 02:34:08;;;;;;;;;;;-4.50;99.90;;;;;;4993612;28;20319;-87
2022/01/27 02:36:33;;;;;;;;;;;-4.50;99.90;;;;;;5014245;28;19913;-91
2022/01/27 02:39:00;;;;;;;;;;;-4.40;99.90;;;;;;5030037;28;20272;-89
2022/01/27 02:41:26;;;;;;;;;;;-4.40;99.90;;;;;;5021151;28;20066;-88
2022/01/27 02:43:52;;;;;;;;;;;-4.40;99.90;;;;;;5013502;28;19924;-88
2022/01/27 02:46:24;;;;;;;;;;;-4.30;99.90;;;;;;5008268;28;19921;-88
2022/01/27 02:48:50;;;;;;;;;;;-4.30;99.90;;;;;;5021499;28;20039;-88
2022/01/27 02:51:16;;;;;;;;;;;-4.30;99.90;;;;;;5029916;28;20454;-88
2022/01/27 02:53:41;;;;;;;;;;;-4.30;99.90;;;;;;5014895;28;19918;-88
2022/01/27 02:56:07;;;;;;;;;;;-4.40;99.90;;;;;;5013111;28;19917;-88
2022/01/27 02:58:33;;;;;;;;;;;-4.40;99.90;;;;;;5013589;28;20447;-89
2022/01/27 03:00:58;;;;;;;;;;;-4.40;99.90;;;;;;5008238;28;19925;-86
2022/01/27 03:03:24;;;;;;;;;;;-4.40;99.90;;;;;;5007648;28;19921;-87
2022/01/27 03:05:49;;;;;;;;;;;-4.40;99.90;;;;;;5020670;28;20261;-87
2022/01/27 03:08:15;;;;;;;;;;;-4.40;99.90;;;;;;5031754;28;20445;-87
2022/01/27 03:10:47;;;;;;;;;;;-4.40;99.90;;;;;;5028751;28;19947;-87
2022/01/27 03:13:13;;;;;;;;;;;-4.40;99.90;;;;;;5000399;28;19918;-88
2022/01/27 03:15:38;;;;;;;;;;;-4.40;99.90;;;;;;4999255;28;20288;-88
2022/01/27 03:18:04;;;;;;;;;;;-4.40;99.90;;;;;;5008461;28;19921;-88
2022/01/27 03:20:33;;;;;;;;;;;-4.30;99.90;;;;;;5026720;28;19959;-87
2022/01/27 03:22:59;;;;;;;;;;;-4.30;99.90;;;;;;5023407;28;19975;-87
2022/01/27 03:25:24;;;;;;;;;;;-4.30;99.90;;;;;;5021015;28;19925;-87
2022/01/27 03:27:50;;;;;;;;;;;-4.30;99.90;;;;;;5028867;28;19924;-89
2022/01/27 03:30:17;;;;;;;;;;;-4.30;99.90;;;;;;5005367;28;20268;-90
2022/01/27 03:32:43;;;;;;;;;;;-4.30;99.90;;;;;;5023627;28;20402;-87
2022/01/27 03:35:08;;;;;;;;;;;-4.40;99.90;;;;;;5014789;28;19998;-87
2022/01/27 03:37:34;;;;;;;;;;;-4.50;99.90;;;;;;5026086;28;19910;-88
2022/01/27 03:39:59;;;;;;;;;;;-4.40;99.90;;;;;;5023445;28;19924;-89
2022/01/27 03:42:25;;;;;;;;;;;-4.40;99.90;;;;;;5020624;28;19928;-88
2022/01/27 03:44:51;;;;;;;;;;;-4.40;99.90;;;;;;5006247;28;19925;-87
2022/01/27 03:47:16;;;;;;;;;;;-4.30;99.90;;;;;;5028568;28;19920;-88
2022/01/27 03:49:42;;;;;;;;;;;-4.20;99.90;;;;;;5022212;28;19924;-88
2022/01/27 03:52:07;;;;;;;;;;;-4.20;99.90;;;;;;5015144;28;19916;-86
2022/01/27 03:54:33;;;;;;;;;;;-4.20;99.90;;;;;;4994904;28;20383;-87
2022/01/27 03:56:59;;;;;;;;;;;-4.20;99.90;;;;;;5018754;28;20337;-87
2022/01/27 03:59:26;;;;;;;;;;;-4.20;99.90;;;;;;5012003;28;20412;-88
2022/01/27 04:01:52;;;;;;;;;;;-4.20;99.90;;;;;;5012269;28;19924;-88
2022/01/27 04:04:18;;;;;;;;;;;-4.10;99.90;;;;;;5018276;28;19939;-88
2022/01/27 04:06:44;;;;;;;;;;;-4.10;99.90;;;;;;5020258;28;19918;-89
2022/01/27 04:09:10;;;;;;;;;;;-4.00;99.90;;;;;;5012195;28;19913;-91
2022/01/27 04:11:36;;;;;;;;;;;-3.90;99.90;;;;;;5016064;28;19967;-89
2022/01/27 04:14:02;;;;;;;;;;;-3.90;99.90;;;;;;5012185;28;20029;-87
2022/01/27 04:16:27;;;;;;;;;;;-3.90;99.90;;;;;;5020139;28;19933;-90
2022/01/27 04:18:53;;;;;;;;;;;-3.90;99.90;;;;;;5031417;28;19924;-90
2022/01/27 04:21:19;;;;;;;;;;;-3.90;99.90;;;;;;5014263;28;19916;-87
2022/01/27 04:23:44;;;;;;;;;;;-3.80;99.90;;;;;;5031539;28;19913;-86
2022/01/27 04:26:13;;;;;;;;;;;-3.70;99.90;;;;;;5032822;28;20284;-88
2022/01/27 04:28:39;;;;;;;;;;;-3.70;99.90;;;;;;5030496;28;20445;-89
2022/01/27 04:31:08;;;;;;;;;;;-3.60;99.90;;;;;;5028632;28;19921;-86
2022/01/27 04:33:35;;;;;;;;;;;-3.60;99.90;;;;;;5009073;28;19929;-88
2022/01/27 04:36:06;;;;;;;;;;;-3.50;99.90;;;;;;5028453;28;20348;-88
2022/01/27 04:44:40;;;;;;;;;;;-3.40;99.90;;;;;;4961733;28;19915;-89
2022/01/27 04:49:31;;;;;;;;;;;-3.20;99.90;;;;;;5031095;28;19917;-87
2022/01/27 04:51:57;;;;;;;;;;;-3.20;99.90;;;;;;5024132;28;19913;-89
2022/01/27 04:56:48;;;;;;;;;;;-3.20;99.90;;;;;;5011798;28;20003;-86
2022/01/27 04:59:19;;;;;;;;;;;-3.20;99.90;;;;;;5025922;28;20024;-89
2022/01/27 05:02:02;;;;;;;;;;;-3.20;99.90;;;;;;5029477;28;19919;-89
2022/01/27 05:04:34;;;;;;;;;;;-3.10;99.90;;;;;;5031290;28;20007;-89
2022/01/27 05:06:59;;;;;;;;;;;-3.10;99.90;;;;;;5030934;28;19970;-88
2022/01/27 05:09:25;;;;;;;;;;;-3.10;99.90;;;;;;5008803;28;20384;-90
2022/01/27 05:11:55;;;;;;;;;;;-3.10;99.90;;;;;;5010512;28;20673;-87
2022/01/27 05:14:25;;;;;;;;;;;-3.10;99.90;;;;;;5015529;28;19917;-87
2022/01/27 05:16:52;;;;;;;;;;;-3.20;99.90;;;;;;5011276;28;19914;-86
2022/01/27 05:19:17;;;;;;;;;;;-3.20;99.90;;;;;;5004217;28;19950;-87
2022/01/27 05:21:43;;;;;;;;;;;-3.20;99.90;;;;;;5025340;28;19917;-87
2022/01/27 05:24:09;;;;;;;;;;;-3.10;99.90;;;;;;5003933;28;20430;-86
2022/01/27 05:26:35;;;;;;;;;;;-3.10;99.90;;;;;;5025237;28;20303;-89
2022/01/27 05:29:01;;;;;;;;;;;-3.00;99.90;;;;;;5013922;28;19914;-85
2022/01/27 05:31:26;;;;;;;;;;;-3.00;99.90;;;;;;5018242;28;19921;-86
2022/01/27 05:33:52;;;;;;;;;;;-3.00;99.90;;;;;;5012272;28;20016;-90
2022/01/27 05:36:17;;;;;;;;;;;-3.00;99.90;;;;;;4998882;28;19925;-88
2022/01/27 05:38:43;;;;;;;;;;;-3.10;99.90;;;;;;5016137;28;19959;-89
2022/01/27 05:41:08;;;;;;;;;;;-3.10;99.90;;;;;;5010790;28;19925;-88
2022/01/27 05:43:34;;;;;;;;;;;-3.10;99.90;;;;;;5011334;28;19917;-88
2022/01/27 05:45:59;;;;;;;;;;;-3.00;99.90;;;;;;5009123;28;19921;-88
2022/01/27 05:48:25;;;;;;;;;;;-3.00;99.90;;;;;;5010758;28;19917;-88
2022/01/27 05:50:51;;;;;;;;;;;-3.00;99.90;;;;;;4996040;28;19910;-88
2022/01/27 05:53:16;;;;;;;;;;;-2.90;99.90;;;;;;5013255;28;20354;-88
2022/01/27 05:55:42;;;;;;;;;;;-2.90;99.90;;;;;;5016814;28;19913;-87
2022/01/27 05:58:07;;;;;;;;;;;-3.00;99.90;;;;;;5013232;28;19927;-85
2022/01/27 06:00:33;;;;;;;;;;;-3.00;99.90;;;;;;5011278;28;20548;-88
2022/01/27 06:02:59;;;;;;;;;;;-3.00;99.90;;;;;;5023585;28;19993;-89
2022/01/27 06:05:26;;;;;;;;;;;-3.10;99.90;;;;;;5010100;28;19979;-90
2022/01/27 06:07:52;;;;;;;;;;;-3.00;99.90;;;;;;5015010;28;19917;-88
2022/01/27 06:10:17;;;;;;;;;;;-2.90;99.90;;;;;;5010056;28;20431;-88
2022/01/27 06:12:51;;;;;;;;;;;-2.90;99.90;;;;;;5011449;28;19949;-88
2022/01/27 06:15:17;;;;;;;;;;;-2.90;99.90;;;;;;5011252;28;19956;-88
2022/01/27 06:17:43;;;;;;;;;;;-2.90;99.90;;;;;;5011142;28;19910;-88
2022/01/27 06:20:09;;;;;;;;;;;-3.00;99.90;;;;;;5023502;28;20365;-91
2022/01/27 06:22:34;;;;;;;;;;;-3.00;99.90;;;;;;5009441;28;20254;-87
2022/01/27 06:25:00;;;;;;;;;;;-3.00;99.90;;;;;;4998494;28;19932;-89
2022/01/27 06:27:25;;;;;;;;;;;-3.00;99.90;;;;;;5009128;28;19917;-88
2022/01/27 06:29:51;;;;;;;;;;;-3.00;99.90;;;;;;4997727;28;19914;-92
2022/01/27 06:32:16;;;;;;;;;;;-3.00;99.90;;;;;;4999385;28;19967;-89
2022/01/27 06:34:42;;;;;;;;;;;-3.00;99.90;;;;;;5012656;28;19961;-88
2022/01/27 06:37:07;;;;;;;;;;;-3.00;99.90;;;;;;5014015;28;19922;-89
2022/01/27 06:39:33;;;;;;;;;;;-3.00;99.90;;;;;;5018849;28;19953;-89
2022/01/27 06:42:01;;;;;;;;;;;-3.00;99.90;;;;;;5011750;28;19924;-89
2022/01/27 06:44:27;;;;;;;;;;;-3.00;99.90;;;;;;4999642;28;19926;-87
2022/01/27 06:46:52;;;;;;;;;;;-3.00;99.90;;;;;;5012887;28;19921;-88
2022/01/27 06:49:18;;;;;;;;;;;-3.10;99.90;;;;;;5014103;28;20008;-85
2022/01/27 06:51:46;;;;;;;;;;;-3.10;99.90;;;;;;5010357;28;19956;-91
2022/01/27 06:54:12;;;;;;;;;;;-3.10;99.90;;;;;;5023821;28;19913;-88
2022/01/27 06:56:38;;;;;;;;;;;-3.10;99.90;;;;;;5024017;28;19919;-88
2022/01/27 06:59:04;;;;;;;;;;;-3.00;99.90;;;;;;5032868;28;19909;-90
2022/01/27 07:01:29;;;;;;;;;;;-3.10;99.90;;;;;;5016789;28;19940;-88
2022/01/27 07:03:55;;;;;;;;;;;-3.00;99.90;;;;;;5037830;28;19936;-88
2022/01/27 07:06:20;;;;;;;;;;;-3.00;99.90;;;;;;5023317;28;19918;-88
2022/01/27 07:08:46;;;;;;;;;;;-3.10;99.90;;;;;;5031693;28;19917;-89
2022/01/27 07:11:11;;;;;;;;;;;-3.10;99.90;;;;;;5032255;28;19918;-90
2022/01/27 07:13:40;;;;;;;;;;;-3.10;99.90;;;;;;5002756;28;19913;-86
2022/01/27 07:16:06;;;;;;;;;;;-3.10;99.90;;;;;;5013976;28;19921;-86
2022/01/27 07:18:32;;;;;;;;;;;-3.10;99.90;;;;;;5000165;28;19920;-85
2022/01/27 07:20:58;;;;;;;;;;;-3.00;99.90;;;;;;5019689;28;20281;-88
2022/01/27 07:23:23;;;;;;;;;;;-3.00;99.90;;;;;;5032583;28;19924;-85
2022/01/27 07:25:49;;;;;;;;;;;-2.90;99.90;;;;;;5032632;28;19924;-86
2022/01/27 07:28:14;;;;;;;;;;;-2.90;99.90;;;;;;5032726;28;19925;-88
2022/01/27 07:30:40;;;;;;;;;;;-2.90;99.90;;;;;;5032277;28;20319;-89
2022/01/27 07:33:05;;;;;;;;;;;-2.90;99.90;;;;;;5023805;28;19925;-87
2022/01/27 07:35:31;;;;;;;;;;;-2.90;99.90;;;;;;5012053;28;19921;-88
2022/01/27 07:37:57;;;;;;;;;;;-2.90;99.90;;;;;;5015863;28;19983;-87
2022/01/27 07:40:23;;;;;;;;;;;-2.80;99.90;;;;;;4995910;28;20376;-89
2022/01/27 07:42:48;;;;;;;;;;;-2.80;99.90;;;;;;5014798;28;19909;-90
2022/01/27 07:45:14;;;;;;;;;;;-2.80;99.90;;;;;;5014031;28;19917;-86
2022/01/27 07:47:39;;;;;;;;;;;-2.80;99.90;;;;;;5030742;28;20015;-87
2022/01/27 07:50:05;;;;;;;;;;;-2.80;99.90;;;;;;5032627;28;20053;-87
2022/01/27 07:52:31;;;;;;;;;;;-2.80;99.90;;;;;;4995351;28;19914;-87
2022/01/27 07:54:56;;;;;;;;;;;-2.70;99.90;;;;;;5028708;28;20356;-88
2022/01/27 07:57:22;;;;;;;;;;;-2.60;99.90;;;;;;5015345;28;19940;-89
2022/01/27 07:59:47;;;;;;;;;;;-2.60;99.90;;;;;;5015990;28;19979;-89
2022/01/27 08:02:13;;;;;;;;;;;-2.60;99.90;;;;;;5030305;28;19921;-88
2022/01/27 08:04:38;;;;;;;;;;;-2.50;99.90;;;;;;5033545;28;19917;-88
2022/01/27 08:07:04;;;;;;;;;;;-2.40;99.90;;;;;;5019488;28;20032;-87
2022/01/27 08:09:30;;;;;;;;;;;-2.40;99.90;;;;;;5013084;28;19924;-87
2022/01/27 08:11:56;;;;;;;;;;;-2.30;99.90;;;;;;5016953;28;20004;-88
2022/01/27 08:14:21;;;;;;;;;;;-2.30;99.90;;;;;;4998459;28;19913;-89
2022/01/27 08:16:47;;;;;;;;;;;-2.30;99.90;;;;;;5025451;28;20431;-86
2022/01/27 08:19:12;;;;;;;;;;;-2.20;99.90;;;;;;5019899;28;20001;-81
2022/01/27 08:21:38;;;;;;;;;;;-2.10;99.90;;;;;;5021390;28;19924;-78
2022/01/27 08:24:04;;;;;;;;;;;-2.00;99.90;;;;;;5017263;28;19957;-79
2022/01/27 08:26:38;;;;;;;;;;;-2.10;99.90;;;;;;5021427;28;19925;-79
2022/01/27 08:34:28;;;;;;;;;;;-2.00;99.90;;;;;;5017761;28;19925;-86
2022/01/27 08:36:54;;;;;;;;;;;-1.90;99.90;;;;;;5030953;28;19999;-87
2022/01/27 08:39:20;;;;;;;;;;;-2.00;99.90;;;;;;5011059;28;19949;-88
2022/01/27 08:41:45;;;;;;;;;;;-2.00;99.90;;;;;;5011394;28;19916;-89
2022/01/27 08:44:11;;;;;;;;;;;-1.80;99.90;;;;;;5015658;28;19917;-85
2022/01/27 08:46:37;;;;;;;;;;;-1.80;99.90;;;;;;5024468;28;19962;-89
2022/01/27 08:49:03;;;;;;;;;;;-1.80;99.90;;;;;;5012292;28;19913;-89
2022/01/27 08:51:30;;;;;;;;;;;-1.80;99.90;;;;;;5010668;28;19917;-88
2022/01/27 08:53:56;;;;;;;;;;;-1.90;99.90;;;;;;4995778;28;19913;-88
2022/01/27 08:56:21;;;;;;;;;;;-1.80;99.90;;;;;;5031150;28;20372;-88
2022/01/27 08:58:47;;;;;;;;;;;-1.70;99.90;;;;;;5009654;28;19914;-91
2022/01/27 09:01:13;;;;;;;;;;;-1.70;99.90;;;;;;5007097;28;19936;-89
2022/01/27 09:03:38;;;;;;;;;;;-1.60;99.90;;;;;;5020445;28;19914;-88
2022/01/27 09:06:04;;;;;;;;;;;-1.60;99.90;;;;;;5031033;28;19932;-88
2022/01/27 09:08:29;;;;;;;;;;;-1.60;99.90;;;;;;5014674;28;19918;-88
2022/01/27 09:10:55;;;;;;;;;;;-1.50;99.90;;;;;;5010717;28;20007;-86
2022/01/27 09:13:20;;;;;;;;;;;-1.50;99.90;;;;;;5018757;28;19921;-87
2022/01/27 09:15:49;;;;;;;;;;;-1.50;99.90;;;;;;5019268;28;19980;-87
2022/01/27 09:18:15;;;;;;;;;;;-1.40;99.90;;;;;;4997705;28;19917;-88
2022/01/27 09:20:41;;;;;;;;;;;-1.30;99.90;;;;;;5023249;28;19918;-87
2022/01/27 09:23:13;;;;;;;;;;;-1.30;99.90;;;;;;5017329;28;19979;-86
2022/01/27 09:25:43;;;;;;;;;;;-1.30;99.90;;;;;;5010875;28;20737;-88
2022/01/27 09:28:08;;;;;;;;;;;-1.30;99.90;;;;;;5010934;28;20008;-87
2022/01/27 09:30:34;;;;;;;;;;;-1.30;99.90;;;;;;5026973;28;20009;-87
2022/01/27 09:32:59;;;;;;;;;;;-1.20;99.90;;;;;;5029471;28;19936;-87
2022/01/27 09:35:27;;;;;;;;;;;-1.10;99.90;;;;;;5030185;28;19917;-87
2022/01/27 09:37:53;;;;;;;;;;;-1.00;99.90;;;;;;5010881;28;19918;-87
2022/01/27 09:40:19;;;;;;;;;;;-0.90;99.90;;;;;;5010779;28;19909;-87
2022/01/27 09:42:50;;;;;;;;;;;-0.80;99.90;;;;;;5010987;28;19909;-87
2022/01/27 09:45:16;;;;;;;;;;;-0.70;99.90;;;;;;4991706;28;19925;-86
2022/01/27 09:47:43;;;;;;;;;;;-0.60;99.90;;;;;;5009826;28;20111;-87
2022/01/27 09:52:40;;;;;;;;;;;-0.60;99.90;;;;;;5021855;28;19924;-87
2022/01/27 09:55:06;;;;;;;;;;;-0.60;99.90;;;;;;5023715;28;19914;-86
2022/01/27 09:57:32;;;;;;;;;;;-0.50;99.90;;;;;;5022410;28;19925;-85
2022/01/27 09:59:57;;;;;;;;;;;-0.50;99.90;;;;;;4987683;28;20020;-85
2022/01/27 10:02:26;;;;;;;;;;;-0.50;99.90;;;;;;5000542;28;19987;-87
2022/01/27 10:04:52;;;;;;;;;;;-0.40;99.90;;;;;;5009887;28;20352;-87
2022/01/27 10:07:22;;;;;;;;;;;-0.40;99.90;;;;;;5008841;28;19987;-89
2022/01/27 10:10:02;;;;;;;;;;;-0.30;99.90;;;;;;5004723;28;19920;-88
2022/01/27 10:12:40;;;;;;;;;;;-0.30;99.90;;;;;;5000600;28;19913;-88
2022/01/27 10:15:11;;;;;;;;;;;-0.30;99.90;;;;;;5025961;28;19960;-89
2022/01/27 10:17:39;;;;;;;;;;;-0.20;99.90;;;;;;5029390;28;19917;-85
2022/01/27 10:20:17;;;;;;;;;;;-0.20;99.90;;;;;;5030167;28;19921;-88
2022/01/27 10:23:03;;;;;;;;;;;-0.10;99.90;;;;;;4994467;28;19917;-87
2022/01/27 10:25:35;;;;;;;;;;;0.10;99.90;;;;;;5022225;28;20011;-88
2022/01/27 10:28:11;;;;;;;;;;;0.10;99.90;;;;;;5020594;28;20004;-86
2022/01/27 10:30:38;;;;;;;;;;;0.10;99.90;;;;;;5008965;28;19917;-87
2022/01/27 10:33:04;;;;;;;;;;;0.10;99.90;;;;;;5025290;28;20025;-85
2022/01/27 10:35:29;;;;;;;;;;;0.20;99.90;;;;;;5029838;28;19921;-87
2022/01/27 10:37:55;;;;;;;;;;;0.10;99.90;;;;;;5021938;28;19918;-87
2022/01/27 10:40:31;;;;;;;;;;;0.10;99.90;;;;;;5000417;28;19913;-87
2022/01/27 10:43:09;;;;;;;;;;;0.10;99.90;;;;;;4995871;28;19918;-88
2022/01/27 10:45:36;;;;;;;;;;;0.20;99.90;;;;;;5029374;28;20323;-88
2022/01/27 10:48:18;;;;;;;;;;;0.10;99.90;;;;;;5029624;28;19909;-88
2022/01/27 10:50:51;;;;;;;;;;;0.10;99.90;;;;;;4990530;28;19921;-88
2022/01/27 10:53:18;;;;;;;;;;;0.20;99.90;;;;;;5001004;28;19921;-86
2022/01/27 10:55:45;;;;;;;;;;;0.30;99.90;;;;;;5027555;28;19924;-86
2022/01/27 10:58:23;;;;;;;;;;;0.40;99.90;;;;;;5001427;28;20012;-88
2022/01/27 11:00:55;;;;;;;;;;;0.50;99.90;;;;;;5027295;28;19971;-87
2022/01/27 11:03:21;;;;;;;;;;;0.60;99.90;;;;;;5014992;28;19914;-87
2022/01/27 11:05:50;;;;;;;;;;;0.70;99.90;;;;;;5012917;28;20067;-86
2022/01/27 11:08:16;;;;;;;;;;;0.70;99.90;;;;;;5017341;28;19921;-85
2022/01/27 11:10:41;;;;;;;;;;;0.80;99.90;;;;;;5018518;28;19924;-86
2022/01/27 11:13:08;;;;;;;;;;;0.80;99.90;;;;;;5015195;28;20269;-84
2022/01/27 11:15:34;;;;;;;;;;;1.00;99.90;;;;;;5019516;28;19913;-86
2022/01/27 11:17:59;;;;;;;;;;;1.00;99.90;;;;;;4998467;28;19921;-85
2022/01/27 11:20:49;;;;;;;;;;;1.20;99.90;;;;;;4998405;28;19949;-82
2022/01/27 11:26:13;;;;;;;;;;;1.20;99.90;;;;;;4960906;28;19930;-86
2022/01/27 11:28:44;;;;;;;;;;;1.20;99.90;;;;;;5012973;28;20008;-87
2022/01/27 11:31:24;;;;;;;;;;;1.10;99.90;;;;;;5016288;28;19960;-88
2022/01/27 11:34:00;;;;;;;;;;;1.10;99.90;;;;;;4998139;28;19925;-84
2022/01/27 11:36:26;;;;;;;;;;;1.20;99.90;;;;;;5009952;28;20393;-85
2022/01/27 11:38:52;;;;;;;;;;;1.30;99.90;;;;;;5032412;28;20005;-86
2022/01/27 11:41:36;;;;;;;;;;;1.30;99.90;;;;;;5017114;28;20388;-85
2022/01/27 11:44:36;;;;;;;;;;;1.30;99.90;;;;;;4993325;28;19940;-86
2022/01/27 11:47:04;;;;;;;;;;;1.40;99.90;;;;;;4961319;28;19914;-84
2022/01/27 11:49:42;;;;;;;;;;;1.50;99.90;;;;;;5024564;28;19996;-86
2022/01/27 11:52:29;;;;;;;;;;;1.40;99.90;;;;;;5026726;28;19944;-86
2022/01/27 11:54:55;;;;;;;;;;;1.50;99.90;;;;;;4993026;28;19910;-85
2022/01/27 11:57:39;;;;;;;;;;;1.50;99.90;;;;;;4975588;28;20034;-83
2022/01/27 12:00:16;;;;;;;;;;;1.50;99.90;;;;;;5001630;28;20004;-85
2022/01/27 12:02:57;;;;;;;;;;;1.50;99.90;;;;;;5014848;28;20384;-85
2022/01/27 12:05:22;;;;;;;;;;;1.50;99.90;;;;;;5016375;28;19917;-86
2022/01/27 12:08:07;;;;;;;;;;;1.70;99.90;;;;;;5023161;28;19924;-88
2022/01/27 12:10:40;;;;;;;;;;;1.70;99.90;;;;;;4994299;28;19909;-88
2022/01/27 12:13:39;;;;;;;;;;;1.90;99.90;;;;;;5012114;28;19913;-86
2022/01/27 12:19:00;;;;;;;;;;;1.90;99.90;;;;;;5027088;28;19986;-86
2022/01/27 12:21:32;;;;;;;;;;;1.90;99.90;;;;;;5028595;28;19920;-87
2022/01/27 12:24:13;;;;;;;;;;;2.00;99.90;;;;;;5015882;28;20397;-86
2022/01/27 12:26:46;;;;;;;;;;;2.00;99.90;;;;;;5017091;28;19963;-84
2022/01/27 12:29:12;;;;;;;;;;;2.00;99.90;;;;;;5006456;28;19914;-84
2022/01/27 12:31:40;;;;;;;;;;;2.10;99.90;;;;;;5010976;28;19919;-88
2022/01/27 12:34:06;;;;;;;;;;;2.00;99.90;;;;;;5019578;28;19925;-85
2022/01/27 12:36:31;;;;;;;;;;;2.10;99.90;;;;;;5026081;28;19979;-85
2022/01/27 12:38:57;;;;;;;;;;;2.10;99.90;;;;;;5023431;28;20350;-84
2022/01/27 12:41:23;;;;;;;;;;;2.30;99.90;;;;;;5031772;28;19921;-86
2022/01/27 12:43:51;;;;;;;;;;;2.30;99.90;;;;;;5021388;28;19967;-85
2022/01/27 12:46:17;;;;;;;;;;;2.40;99.90;;;;;;5022048;28;19998;-86
2022/01/27 12:48:46;;;;;;;;;;;2.30;99.90;;;;;;5000885;28;20375;-83
2022/01/27 12:51:11;;;;;;;;;;;2.40;99.90;;;;;;5001411;28;20380;-82
2022/01/27 12:53:37;;;;;;;;;;;2.40;99.90;;;;;;5015182;28;20032;-79
2022/01/27 12:56:07;;;;;;;;;;;2.20;99.90;;;;;;5018631;28;20000;-79
2022/01/27 12:58:33;;;;;;;;;;;2.20;99.90;;;;;;5014770;28;19921;-82
2022/01/27 13:01:01;;;;;;;;;;;2.20;99.90;;;;;;5001225;28;19924;-81
2022/01/27 13:03:26;;;;;;;;;;;2.30;99.90;;;;;;5013830;28;19921;-79
2022/01/27 13:05:53;;;;;;;;;;;2.30;99.90;;;;;;5016635;28;19918;-79
2022/01/27 13:08:20;;;;;;;;;;;2.30;99.90;;;;;;5020147;28;19918;-81
2022/01/27 13:10:47;;;;;;;;;;;2.30;99.90;;;;;;5018227;28;20013;-80
2022/01/27 13:13:18;;;;;;;;;;;2.40;99.90;;;;;;5003022;28;19923;-79
2022/01/27 13:15:44;;;;;;;;;;;2.50;99.90;;;;;;5020801;28;19957;-78
2022/01/27 13:18:36;;;;;;;;;;;2.60;99.90;;;;;;5021161;28;20025;-82
2022/01/27 13:21:00;;;;;;;;;;;2.60;99.90;;;;;;5017015;28;19953;-80
2022/01/27 13:23:33;;;;;;;;;;;2.60;99.90;;;;;;5013728;28;19917;-80
2022/01/27 13:26:02;;;;;;;;;;;2.60;99.90;;;;;;5024969;28;19924;-81
2022/01/27 13:28:29;;;;;;;;;;;2.60;99.90;;;;;;5013175;28;20376;-80
2022/01/27 13:30:58;;;;;;;;;;;2.60;99.90;;;;;;4995911;28;20011;-82
2022/01/27 13:33:25;;;;;;;;;;;2.60;99.90;;;;;;5017677;28;20326;-81
2022/01/27 13:35:51;;;;;;;;;;;2.60;99.90;;;;;;5013658;28;20252;-80
2022/01/27 13:41:22;;;;;;;;;;;2.70;99.90;;;;;;5022923;28;20028;-79
2022/01/27 13:44:07;;;;;;;;;;;2.70;99.90;;;;;;5020960;28;20543;-82
2022/01/27 13:46:33;;;;;;;;;;;2.80;99.90;;;;;;5018574;28;20011;-81
2022/01/27 13:49:19;;;;;;;;;;;2.80;99.90;;;;;;5018568;28;20392;-79
2022/01/27 13:52:04;;;;;;;;;;;2.80;99.90;;;;;;5013503;28;19917;-78
2022/01/27 13:54:29;;;;;;;;;;;2.80;99.90;;;;;;5017956;28;19936;-81
2022/01/27 13:56:55;;;;;;;;;;;2.80;99.90;;;;;;5003380;28;19917;-84
2022/01/27 13:59:28;;;;;;;;;;;2.80;99.90;;;;;;5019206;28;20024;-83
2022/01/27 14:02:12;;;;;;;;;;;2.90;99.90;;;;;;5014265;28;19924;-81
2022/01/27 14:04:48;;;;;;;;;;;2.90;99.90;;;;;;5009268;28;19917;-81
2022/01/27 14:07:43;;;;;;;;;;;2.90;99.90;;;;;;5018281;28;19967;-82
2022/01/27 14:10:09;;;;;;;;;;;3.00;99.90;;;;;;4991553;28;20323;-80
2022/01/27 14:12:55;;;;;;;;;;;3.00;99.90;;;;;;5004053;28;21170;-82
2022/01/27 14:15:26;;;;;;;;;;;2.90;99.90;;;;;;5011350;28;20619;-80
2022/01/27 14:17:56;;;;;;;;;;;2.90;99.90;;;;;;5015933;28;19971;-80
2022/01/27 14:20:22;;;;;;;;;;;2.90;99.90;;;;;;5014170;28;19914;-82
2022/01/27 14:23:00;;;;;;;;;;;2.90;99.90;;;;;;5014856;28;20281;-79
2022/01/27 14:25:35;;;;;;;;;;;2.90;99.90;;;;;;5012997;28;20288;-82
2022/01/27 14:28:00;;;;;;;;;;;2.90;99.90;;;;;;5016591;28;19913;-82
2022/01/27 14:30:26;;;;;;;;;;;2.80;99.90;;;;;;5017886;28;20366;-80
2022/01/27 14:32:51;;;;;;;;;;;2.80;99.90;;;;;;5014749;28;20439;-82
2022/01/27 14:35:17;;;;;;;;;;;2.80;99.90;;;;;;5018041;28;20023;-81
2022/01/27 14:37:43;;;;;;;;;;;2.80;99.90;;;;;;4996631;28;19982;-80
2022/01/27 14:40:13;;;;;;;;;;;2.80;99.90;;;;;;5000120;28;19917;-80
2022/01/27 14:42:40;;;;;;;;;;;2.80;99.90;;;;;;5015873;28;19917;-82
2022/01/27 14:45:07;;;;;;;;;;;2.70;99.90;;;;;;5023563;28;20015;-81
2022/01/27 14:47:40;;;;;;;;;;;2.60;99.90;;;;;;4992035;28;19989;-82
2022/01/27 14:50:06;;;;;;;;;;;2.60;99.90;;;;;;4981593;28;20361;-83
2022/01/27 14:52:31;;;;;;;;;;;2.60;99.90;;;;;;5006851;28;19924;-81
2022/01/27 14:54:57;;;;;;;;;;;2.60;99.90;;;;;;5014584;28;20403;-81
2022/01/27 14:57:23;;;;;;;;;;;2.50;99.90;;;;;;5011277;28;19971;-82
2022/01/27 14:59:49;;;;;;;;;;;2.50;99.90;;;;;;5014235;28;19922;-83
2022/01/27 15:02:14;;;;;;;;;;;2.50;99.90;;;;;;5019733;28;19949;-81
2022/01/27 15:04:40;;;;;;;;;;;2.50;99.90;;;;;;4987527;28;19920;-82
2022/01/27 15:07:05;;;;;;;;;;;2.50;99.90;;;;;;5016611;28;19921;-81
2022/01/27 15:09:31;;;;;;;;;;;2.40;99.90;;;;;;5026186;28;19921;-81
2022/01/27 15:11:57;;;;;;;;;;;2.40;99.90;;;;;;4999194;28;19920;-82
2022/01/27 15:19:51;;;;;;;;;;;2.20;99.90;;;;;;5008489;28;19941;-82
2022/01/27 15:22:20;;;;;;;;;;;2.20;99.90;;;;;;5020753;28;19918;-82
2022/01/27 15:24:45;;;;;;;;;;;2.20;99.90;;;;;;5012385;28;20372;-82
2022/01/27 15:27:14;;;;;;;;;;;2.20;99.90;;;;;;5015136;28;19924;-83
2022/01/27 15:29:41;;;;;;;;;;;2.20;99.90;;;;;;5025110;28;19921;-82
2022/01/27 15:32:08;;;;;;;;;;;2.20;99.90;;;;;;5015342;28;19917;-87
2022/01/27 15:34:35;;;;;;;;;;;2.20;98.30;;;;;;5012783;28;19921;-85
2022/01/27 15:37:00;;;;;;;;;;;2.20;99.30;;;;;;5012508;28;20337;-85
2022/01/27 15:39:26;;;;;;;;;;;2.10;99.00;;;;;;5008795;28;20008;-85